Trenton, New Jersey
Current Conditions -  °F | °C
As of 1:53 AM on Sunday 21 Dec 2014 (Local Time) from KTTN Reporting Station
Overcast Overcast  
Wind Chill: 30°   Ceiling: 3100
Heat Index: 30°   Visibility: 10mi
Dew Point: 22°   Wind: 3mph
Humidity: 72%   Direction: 300°WNW
Pressure: 30.28"   Gusts: NA
Location:  40.22°N, 74.76°W
Report Text: KTTN 210653Z AUTO 30003KT 10SM OVC031 M01/M06 A3028 RMK AO2 SLP251 T10111056
Loading
Personal Weather Stations






























Interactive Weather Map New forecast layout! Learn more

10-Day Weather Forecast

Advertisements
Track Severe Weather on mobile